sensor_id;sensor_type;location;lat;lon;timestamp;P1;durP1;ratioP1;P2;durP2;ratioP2
11139;SDS011;5624;49.388;11.350;2022-10-31T00:00:19;13.00;;;7.30;;
11139;SDS011;5624;49.388;11.350;2022-10-31T00:02:45;15.33;;;7.07;;
11139;SDS011;5624;49.388;11.350;2022-10-31T00:05:11;11.67;;;7.20;;
11139;SDS011;5624;49.388;11.350;2022-10-31T00:07:36;11.33;;;6.97;;
11139;SDS011;5624;49.388;11.350;2022-10-31T00:10:02;11.43;;;6.93;;
11139;SDS011;5624;49.388;11.350;2022-10-31T00:12:28;8.47;;;6.53;;
11139;SDS011;5624;49.388;11.350;2022-10-31T00:14:53;13.20;;;6.87;;
11139;SDS011;5624;49.388;11.350;2022-10-31T00:17:19;9.37;;;6.50;;
11139;SDS011;5624;49.388;11.350;2022-10-31T00:19:45;8.50;;;6.77;;
11139;SDS011;5624;49.388;11.350;2022-10-31T00:22:10;9.73;;;6.87;;
11139;SDS011;5624;49.388;11.350;2022-10-31T00:24:36;12.43;;;7.23;;
11139;SDS011;5624;49.388;11.350;2022-10-31T00:27:01;11.90;;;7.57;;
11139;SDS011;5624;49.388;11.350;2022-10-31T00:29:27;13.20;;;7.53;;
11139;SDS011;5624;49.388;11.350;2022-10-31T00:31:53;12.50;;;7.67;;
11139;SDS011;5624;49.388;11.350;2022-10-31T00:34:18;10.57;;;6.53;;
11139;SDS011;5624;49.388;11.350;2022-10-31T00:36:44;12.73;;;7.07;;
11139;SDS011;5624;49.388;11.350;2022-10-31T00:39:09;12.20;;;6.97;;
11139;SDS011;5624;49.388;11.350;2022-10-31T00:41:35;14.47;;;6.60;;
11139;SDS011;5624;49.388;11.350;2022-10-31T00:44:00;12.43;;;6.47;;
11139;SDS011;5624;49.388;11.350;2022-10-31T00:46:26;12.10;;;6.67;;
11139;SDS011;5624;49.388;11.350;2022-10-31T00:48:52;9.60;;;5.83;;
11139;SDS011;5624;49.388;11.350;2022-10-31T00:51:17;9.93;;;5.60;;
11139;SDS011;5624;49.388;11.350;2022-10-31T00:53:43;8.57;;;6.40;;
11139;SDS011;5624;49.388;11.350;2022-10-31T00:56:09;13.10;;;6.30;;
11139;SDS011;5624;49.388;11.350;2022-10-31T00:58:34;11.77;;;7.67;;
11139;SDS011;5624;49.388;11.350;2022-10-31T01:01:00;12.63;;;8.10;;
11139;SDS011;5624;49.388;11.350;2022-10-31T01:03:27;10.10;;;5.60;;
11139;SDS011;5624;49.388;11.350;2022-10-31T01:05:58;14.53;;;6.03;;
11139;SDS011;5624;49.388;11.350;2022-10-31T01:08:27;9.90;;;7.03;;
11139;SDS011;5624;49.388;11.350;2022-10-31T01:13:39;10.53;;;6.17;;
11139;SDS011;5624;49.388;11.350;2022-10-31T01:16:06;10.30;;;5.53;;
11139;SDS011;5624;49.388;11.350;2022-10-31T01:18:33;10.27;;;6.43;;
11139;SDS011;5624;49.388;11.350;2022-10-31T01:21:07;8.10;;;5.37;;
11139;SDS011;5624;49.388;11.350;2022-10-31T01:23:37;11.43;;;6.20;;
11139;SDS011;5624;49.388;11.350;2022-10-31T01:26:07;10.00;;;6.10;;
11139;SDS011;5624;49.388;11.350;2022-10-31T01:28:39;9.50;;;6.30;;
11139;SDS011;5624;49.388;11.350;2022-10-31T01:31:15;10.00;;;6.80;;
11139;SDS011;5624;49.388;11.350;2022-10-31T01:33:42;9.70;;;6.00;;
11139;SDS011;5624;49.388;11.350;2022-10-31T01:36:19;9.20;;;6.27;;
11139;SDS011;5624;49.388;11.350;2022-10-31T01:38:50;11.67;;;6.63;;
11139;SDS011;5624;49.388;11.350;2022-10-31T01:41:19;10.10;;;6.70;;
11139;SDS011;5624;49.388;11.350;2022-10-31T01:43:54;12.50;;;6.40;;
11139;SDS011;5624;49.388;11.350;2022-10-31T01:46:24;14.30;;;7.43;;
11139;SDS011;5624;49.388;11.350;2022-10-31T01:48:57;11.73;;;7.00;;
11139;SDS011;5624;49.388;11.350;2022-10-31T01:51:27;11.27;;;6.50;;
11139;SDS011;5624;49.388;11.350;2022-10-31T01:53:58;13.43;;;8.30;;
11139;SDS011;5624;49.388;11.350;2022-10-31T01:56:29;14.47;;;8.47;;
11139;SDS011;5624;49.388;11.350;2022-10-31T01:58:56;14.23;;;8.53;;
11139;SDS011;5624;49.388;11.350;2022-10-31T02:01:24;16.03;;;7.70;;
11139;SDS011;5624;49.388;11.350;2022-10-31T02:03:50;13.60;;;6.30;;
11139;SDS011;5624;49.388;11.350;2022-10-31T02:06:22;13.00;;;6.87;;
11139;SDS011;5624;49.388;11.350;2022-10-31T02:09:04;9.93;;;6.67;;
11139;SDS011;5624;49.388;11.350;2022-10-31T02:11:31;11.90;;;8.43;;
11139;SDS011;5624;49.388;11.350;2022-10-31T02:14:00;12.17;;;8.03;;
11139;SDS011;5624;49.388;11.350;2022-10-31T02:16:27;12.40;;;7.60;;
11139;SDS011;5624;49.388;11.350;2022-10-31T02:18:53;14.47;;;8.10;;
11139;SDS011;5624;49.388;11.350;2022-10-31T02:21:32;11.00;;;7.50;;
11139;SDS011;5624;49.388;11.350;2022-10-31T02:26:54;10.30;;;8.80;;
11139;SDS011;5624;49.388;11.350;2022-10-31T02:44:04;11.07;;;6.93;;
11139;SDS011;5624;49.388;11.350;2022-10-31T02:51:43;14.83;;;8.37;;
11139;SDS011;5624;49.388;11.350;2022-10-31T02:54:21;12.77;;;7.67;;
11139;SDS011;5624;49.388;11.350;2022-10-31T02:56:49;18.40;;;9.93;;
11139;SDS011;5624;49.388;11.350;2022-10-31T02:59:18;14.00;;;8.27;;
11139;SDS011;5624;49.388;11.350;2022-10-31T03:06:49;15.70;;;8.60;;
11139;SDS011;5624;49.388;11.350;2022-10-31T03:09:37;13.73;;;9.73;;
11139;SDS011;5624;49.388;11.350;2022-10-31T03:12:28;15.30;;;7.50;;
11139;SDS011;5624;49.388;11.350;2022-10-31T03:15:17;15.60;;;8.67;;
11139;SDS011;5624;49.388;11.350;2022-10-31T03:17:53;16.40;;;7.90;;
11139;SDS011;5624;49.388;11.350;2022-10-31T03:20:30;12.70;;;8.27;;
11139;SDS011;5624;49.388;11.350;2022-10-31T03:23:01;15.00;;;10.07;;
11139;SDS011;5624;49.388;11.350;2022-10-31T03:25:29;13.57;;;9.03;;
11139;SDS011;5624;49.388;11.350;2022-10-31T03:27:57;12.67;;;9.17;;
11139;SDS011;5624;49.388;11.350;2022-10-31T03:30:26;13.10;;;9.50;;
11139;SDS011;5624;49.388;11.350;2022-10-31T03:32:52;13.13;;;9.57;;
11139;SDS011;5624;49.388;11.350;2022-10-31T03:35:20;12.77;;;8.50;;
11139;SDS011;5624;49.388;11.350;2022-10-31T03:37:49;13.40;;;9.37;;
11139;SDS011;5624;49.388;11.350;2022-10-31T03:40:18;15.70;;;10.13;;
11139;SDS011;5624;49.388;11.350;2022-10-31T03:42:48;16.07;;;10.10;;
11139;SDS011;5624;49.388;11.350;2022-10-31T03:45:23;14.53;;;10.17;;
11139;SDS011;5624;49.388;11.350;2022-10-31T03:47:51;14.90;;;10.20;;
11139;SDS011;5624;49.388;11.350;2022-10-31T03:50:18;16.07;;;9.10;;
11139;SDS011;5624;49.388;11.350;2022-10-31T03:52:49;15.30;;;8.23;;
11139;SDS011;5624;49.388;11.350;2022-10-31T03:55:18;13.03;;;8.43;;
11139;SDS011;5624;49.388;11.350;2022-10-31T04:00:20;11.50;;;7.83;;
11139;SDS011;5624;49.388;11.350;2022-10-31T04:02:49;14.00;;;8.70;;
11139;SDS011;5624;49.388;11.350;2022-10-31T04:05:25;18.43;;;10.10;;
11139;SDS011;5624;49.388;11.350;2022-10-31T04:07:53;13.50;;;8.67;;
11139;SDS011;5624;49.388;11.350;2022-10-31T04:10:21;13.93;;;8.03;;
11139;SDS011;5624;49.388;11.350;2022-10-31T04:12:50;8.73;;;7.10;;
11139;SDS011;5624;49.388;11.350;2022-10-31T04:15:21;11.57;;;7.27;;
11139;SDS011;5624;49.388;11.350;2022-10-31T04:17:48;11.77;;;6.67;;
11139;SDS011;5624;49.388;11.350;2022-10-31T04:20:17;14.67;;;9.23;;
11139;SDS011;5624;49.388;11.350;2022-10-31T04:22:43;16.60;;;9.93;;
11139;SDS011;5624;49.388;11.350;2022-10-31T04:25:09;14.67;;;8.33;;
11139;SDS011;5624;49.388;11.350;2022-10-31T04:27:34;14.50;;;7.67;;
11139;SDS011;5624;49.388;11.350;2022-10-31T04:30:00;10.87;;;7.77;;
11139;SDS011;5624;49.388;11.350;2022-10-31T04:32:26;11.57;;;7.87;;
11139;SDS011;5624;49.388;11.350;2022-10-31T04:34:51;12.50;;;7.60;;
11139;SDS011;5624;49.388;11.350;2022-10-31T04:37:17;10.70;;;8.10;;
11139;SDS011;5624;49.388;11.350;2022-10-31T04:39:42;13.93;;;7.57;;
11139;SDS011;5624;49.388;11.350;2022-10-31T04:42:08;14.53;;;8.13;;
11139;SDS011;5624;49.388;11.350;2022-10-31T04:44:34;12.90;;;8.00;;
11139;SDS011;5624;49.388;11.350;2022-10-31T04:46:59;12.03;;;7.93;;
11139;SDS011;5624;49.388;11.350;2022-10-31T04:49:25;9.47;;;6.63;;
11139;SDS011;5624;49.388;11.350;2022-10-31T04:51:50;13.17;;;7.70;;
11139;SDS011;5624;49.388;11.350;2022-10-31T04:54:16;12.67;;;9.40;;
11139;SDS011;5624;49.388;11.350;2022-10-31T04:56:42;10.90;;;7.30;;
11139;SDS011;5624;49.388;11.350;2022-10-31T04:59:07;9.97;;;7.07;;
11139;SDS011;5624;49.388;11.350;2022-10-31T05:01:33;12.50;;;7.33;;
11139;SDS011;5624;49.388;11.350;2022-10-31T05:03:58;13.67;;;8.23;;
11139;SDS011;5624;49.388;11.350;2022-10-31T05:06:24;12.83;;;8.40;;
11139;SDS011;5624;49.388;11.350;2022-10-31T05:08:50;14.80;;;8.33;;
11139;SDS011;5624;49.388;11.350;2022-10-31T05:11:15;11.43;;;7.50;;
11139;SDS011;5624;49.388;11.350;2022-10-31T05:13:41;12.53;;;7.50;;
11139;SDS011;5624;49.388;11.350;2022-10-31T05:16:06;15.73;;;7.13;;
11139;SDS011;5624;49.388;11.350;2022-10-31T05:18:32;13.87;;;7.67;;
11139;SDS011;5624;49.388;11.350;2022-10-31T05:20:57;13.60;;;7.13;;
11139;SDS011;5624;49.388;11.350;2022-10-31T05:23:23;13.87;;;7.23;;
11139;SDS011;5624;49.388;11.350;2022-10-31T05:25:49;12.73;;;7.10;;
11139;SDS011;5624;49.388;11.350;2022-10-31T05:28:14;10.03;;;7.37;;
11139;SDS011;5624;49.388;11.350;2022-10-31T05:30:40;9.43;;;6.77;;
11139;SDS011;5624;49.388;11.350;2022-10-31T05:33:06;9.87;;;6.37;;
11139;SDS011;5624;49.388;11.350;2022-10-31T05:35:32;11.80;;;6.37;;
11139;SDS011;5624;49.388;11.350;2022-10-31T05:37:58;13.27;;;7.30;;
11139;SDS011;5624;49.388;11.350;2022-10-31T05:40:24;12.83;;;8.70;;
11139;SDS011;5624;49.388;11.350;2022-10-31T05:42:52;16.20;;;8.53;;
11139;SDS011;5624;49.388;11.350;2022-10-31T05:45:19;11.37;;;7.03;;
11139;SDS011;5624;49.388;11.350;2022-10-31T05:47:55;10.77;;;6.07;;
11139;SDS011;5624;49.388;11.350;2022-10-31T05:50:25;11.47;;;6.60;;
11139;SDS011;5624;49.388;11.350;2022-10-31T05:52:56;11.60;;;6.67;;
11139;SDS011;5624;49.388;11.350;2022-10-31T05:55:23;10.60;;;6.63;;
11139;SDS011;5624;49.388;11.350;2022-10-31T05:57:50;11.47;;;6.50;;
11139;SDS011;5624;49.388;11.350;2022-10-31T06:00:17;13.47;;;6.93;;
11139;SDS011;5624;49.388;11.350;2022-10-31T06:02:43;9.93;;;6.27;;
11139;SDS011;5624;49.388;11.350;2022-10-31T06:05:08;11.03;;;6.30;;
11139;SDS011;5624;49.388;11.350;2022-10-31T06:07:34;12.30;;;8.17;;
11139;SDS011;5624;49.388;11.350;2022-10-31T06:10:01;10.23;;;6.27;;
11139;SDS011;5624;49.388;11.350;2022-10-31T06:12:27;9.53;;;6.33;;
11139;SDS011;5624;49.388;11.350;2022-10-31T06:14:53;8.73;;;6.70;;
11139;SDS011;5624;49.388;11.350;2022-10-31T06:17:18;9.30;;;5.90;;
11139;SDS011;5624;49.388;11.350;2022-10-31T06:19:44;10.07;;;6.20;;
11139;SDS011;5624;49.388;11.350;2022-10-31T06:22:09;12.90;;;6.70;;
11139;SDS011;5624;49.388;11.350;2022-10-31T06:24:36;10.53;;;6.63;;
11139;SDS011;5624;49.388;11.350;2022-10-31T06:27:03;14.40;;;7.17;;
11139;SDS011;5624;49.388;11.350;2022-10-31T06:29:29;11.17;;;6.20;;
11139;SDS011;5624;49.388;11.350;2022-10-31T06:31:54;10.17;;;5.97;;
11139;SDS011;5624;49.388;11.350;2022-10-31T06:34:20;14.33;;;5.80;;
11139;SDS011;5624;49.388;11.350;2022-10-31T06:36:46;14.27;;;6.67;;
11139;SDS011;5624;49.388;11.350;2022-10-31T06:39:12;8.73;;;5.73;;
11139;SDS011;5624;49.388;11.350;2022-10-31T06:41:38;13.17;;;7.00;;
11139;SDS011;5624;49.388;11.350;2022-10-31T06:44:05;12.13;;;5.63;;
11139;SDS011;5624;49.388;11.350;2022-10-31T06:46:31;16.20;;;8.00;;
11139;SDS011;5624;49.388;11.350;2022-10-31T06:48:57;13.53;;;6.87;;
11139;SDS011;5624;49.388;11.350;2022-10-31T06:51:22;10.20;;;6.27;;
11139;SDS011;5624;49.388;11.350;2022-10-31T06:53:48;10.20;;;6.03;;
11139;SDS011;5624;49.388;11.350;2022-10-31T06:56:14;12.97;;;6.03;;
11139;SDS011;5624;49.388;11.350;2022-10-31T06:58:39;12.43;;;5.20;;
11139;SDS011;5624;49.388;11.350;2022-10-31T07:01:05;11.30;;;6.10;;
11139;SDS011;5624;49.388;11.350;2022-10-31T07:03:31;12.43;;;5.87;;
11139;SDS011;5624;49.388;11.350;2022-10-31T07:05:56;10.70;;;5.83;;
11139;SDS011;5624;49.388;11.350;2022-10-31T07:08:22;12.93;;;5.23;;
11139;SDS011;5624;49.388;11.350;2022-10-31T07:10:55;12.03;;;5.17;;
11139;SDS011;5624;49.388;11.350;2022-10-31T07:13:22;8.63;;;5.07;;
11139;SDS011;5624;49.388;11.350;2022-10-31T07:15:51;11.73;;;6.13;;
11139;SDS011;5624;49.388;11.350;2022-10-31T07:18:18;16.00;;;7.07;;
11139;SDS011;5624;49.388;11.350;2022-10-31T07:20:44;12.83;;;6.60;;
11139;SDS011;5624;49.388;11.350;2022-10-31T07:23:10;10.23;;;5.77;;
11139;SDS011;5624;49.388;11.350;2022-10-31T07:25:37;10.60;;;5.63;;
11139;SDS011;5624;49.388;11.350;2022-10-31T07:28:03;9.37;;;5.77;;
11139;SDS011;5624;49.388;11.350;2022-10-31T07:30:29;7.80;;;5.47;;
11139;SDS011;5624;49.388;11.350;2022-10-31T07:32:54;10.80;;;5.33;;
11139;SDS011;5624;49.388;11.350;2022-10-31T07:35:21;10.73;;;6.13;;
11139;SDS011;5624;49.388;11.350;2022-10-31T07:37:49;8.93;;;5.00;;
11139;SDS011;5624;49.388;11.350;2022-10-31T07:40:15;9.07;;;5.17;;
11139;SDS011;5624;49.388;11.350;2022-10-31T07:42:43;10.60;;;5.53;;
11139;SDS011;5624;49.388;11.350;2022-10-31T07:45:10;9.60;;;5.10;;
11139;SDS011;5624;49.388;11.350;2022-10-31T07:50:08;11.35;;;5.13;;
11139;SDS011;5624;49.388;11.350;2022-10-31T07:52:35;10.02;;;4.82;;
11139;SDS011;5624;49.388;11.350;2022-10-31T07:55:00;9.60;;;4.93;;
11139;SDS011;5624;49.388;11.350;2022-10-31T07:57:26;8.65;;;4.55;;
11139;SDS011;5624;49.388;11.350;2022-10-31T07:59:52;11.68;;;5.78;;
11139;SDS011;5624;49.388;11.350;2022-10-31T08:02:17;10.43;;;4.95;;
11139;SDS011;5624;49.388;11.350;2022-10-31T08:04:43;9.32;;;5.10;;
11139;SDS011;5624;49.388;11.350;2022-10-31T08:07:09;10.57;;;4.82;;
11139;SDS011;5624;49.388;11.350;2022-10-31T08:09:34;11.15;;;5.15;;
11139;SDS011;5624;49.388;11.350;2022-10-31T08:12:00;9.38;;;5.22;;
11139;SDS011;5624;49.388;11.350;2022-10-31T08:14:26;9.27;;;4.95;;
11139;SDS011;5624;49.388;11.350;2022-10-31T08:16:53;11.13;;;5.55;;
11139;SDS011;5624;49.388;11.350;2022-10-31T08:19:19;9.02;;;5.32;;
11139;SDS011;5624;49.388;11.350;2022-10-31T08:21:45;8.52;;;5.38;;
11139;SDS011;5624;49.388;11.350;2022-10-31T08:24:11;9.02;;;4.88;;
11139;SDS011;5624;49.388;11.350;2022-10-31T08:26:36;10.13;;;4.63;;
11139;SDS011;5624;49.388;11.350;2022-10-31T08:29:02;9.85;;;4.90;;
11139;SDS011;5624;49.388;11.350;2022-10-31T08:31:28;9.55;;;5.45;;
11139;SDS011;5624;49.388;11.350;2022-10-31T08:33:54;9.77;;;5.03;;
11139;SDS011;5624;49.388;11.350;2022-10-31T08:36:20;10.57;;;4.60;;
11139;SDS011;5624;49.388;11.350;2022-10-31T08:38:46;11.30;;;5.18;;
11139;SDS011;5624;49.388;11.350;2022-10-31T08:41:12;9.73;;;4.75;;
11139;SDS011;5624;49.388;11.350;2022-10-31T08:43:39;9.27;;;4.20;;
11139;SDS011;5624;49.388;11.350;2022-10-31T08:46:05;13.85;;;5.43;;
11139;SDS011;5624;49.388;11.350;2022-10-31T08:48:30;11.55;;;5.10;;
11139;SDS011;5624;49.388;11.350;2022-10-31T08:50:57;9.85;;;5.30;;
11139;SDS011;5624;49.388;11.350;2022-10-31T08:53:24;11.70;;;4.80;;
11139;SDS011;5624;49.388;11.350;2022-10-31T08:55:50;9.82;;;4.65;;
11139;SDS011;5624;49.388;11.350;2022-10-31T08:58:17;8.80;;;4.47;;
11139;SDS011;5624;49.388;11.350;2022-10-31T09:00:43;9.65;;;5.20;;
11139;SDS011;5624;49.388;11.350;2022-10-31T09:03:11;13.55;;;6.25;;
11139;SDS011;5624;49.388;11.350;2022-10-31T09:05:39;11.93;;;6.32;;
11139;SDS011;5624;49.388;11.350;2022-10-31T09:08:05;11.82;;;5.07;;
11139;SDS011;5624;49.388;11.350;2022-10-31T09:10:32;12.95;;;5.75;;
11139;SDS011;5624;49.388;11.350;2022-10-31T09:13:06;11.77;;;5.82;;
11139;SDS011;5624;49.388;11.350;2022-10-31T09:15:43;9.00;;;4.72;;
11139;SDS011;5624;49.388;11.350;2022-10-31T09:18:10;11.65;;;4.65;;
11139;SDS011;5624;49.388;11.350;2022-10-31T09:20:38;10.18;;;4.97;;
11139;SDS011;5624;49.388;11.350;2022-10-31T09:23:06;8.38;;;4.43;;
11139;SDS011;5624;49.388;11.350;2022-10-31T09:25:34;9.80;;;4.60;;
11139;SDS011;5624;49.388;11.350;2022-10-31T09:28:00;13.95;;;4.53;;
11139;SDS011;5624;49.388;11.350;2022-10-31T09:30:28;12.93;;;4.97;;
11139;SDS011;5624;49.388;11.350;2022-10-31T09:32:57;11.50;;;5.20;;
11139;SDS011;5624;49.388;11.350;2022-10-31T09:35:24;11.95;;;4.00;;
11139;SDS011;5624;49.388;11.350;2022-10-31T09:37:54;10.55;;;3.88;;
11139;SDS011;5624;49.388;11.350;2022-10-31T09:40:21;11.45;;;4.43;;
11139;SDS011;5624;49.388;11.350;2022-10-31T09:51:00;10.40;;;3.70;;
11139;SDS011;5624;49.388;11.350;2022-10-31T09:53:35;7.40;;;3.75;;
11139;SDS011;5624;49.388;11.350;2022-10-31T09:56:11;7.32;;;3.35;;
11139;SDS011;5624;49.388;11.350;2022-10-31T09:58:43;8.00;;;3.45;;
11139;SDS011;5624;49.388;11.350;2022-10-31T10:01:17;6.70;;;3.03;;
11139;SDS011;5624;49.388;11.350;2022-10-31T10:03:54;5.35;;;3.00;;
11139;SDS011;5624;49.388;11.350;2022-10-31T10:06:29;8.75;;;3.42;;
11139;SDS011;5624;49.388;11.350;2022-10-31T10:08:59;6.15;;;3.00;;
11139;SDS011;5624;49.388;11.350;2022-10-31T10:17:16;8.63;;;3.25;;
11139;SDS011;5624;49.388;11.350;2022-10-31T10:25:19;6.97;;;3.08;;
11139;SDS011;5624;49.388;11.350;2022-10-31T10:30:37;11.68;;;3.00;;
11139;SDS011;5624;49.388;11.350;2022-10-31T10:33:11;10.98;;;4.00;;
11139;SDS011;5624;49.388;11.350;2022-10-31T10:35:41;7.40;;;3.78;;
11139;SDS011;5624;49.388;11.350;2022-10-31T10:38:49;6.15;;;2.78;;
11139;SDS011;5624;49.388;11.350;2022-10-31T10:41:19;6.40;;;2.17;;
11139;SDS011;5624;49.388;11.350;2022-10-31T10:43:48;9.18;;;2.88;;
11139;SDS011;5624;49.388;11.350;2022-10-31T10:46:23;6.45;;;2.65;;
11139;SDS011;5624;49.388;11.350;2022-10-31T10:59:51;7.35;;;2.28;;
11139;SDS011;5624;49.388;11.350;2022-10-31T11:02:19;6.40;;;2.78;;
11139;SDS011;5624;49.388;11.350;2022-10-31T11:04:55;6.10;;;2.30;;
11139;SDS011;5624;49.388;11.350;2022-10-31T11:07:23;6.95;;;2.15;;
11139;SDS011;5624;49.388;11.350;2022-10-31T11:09:48;10.50;;;2.72;;
11139;SDS011;5624;49.388;11.350;2022-10-31T11:12:17;5.38;;;2.28;;
11139;SDS011;5624;49.388;11.350;2022-10-31T11:14:50;7.15;;;2.58;;
11139;SDS011;5624;49.388;11.350;2022-10-31T11:17:27;5.90;;;2.10;;
11139;SDS011;5624;49.388;11.350;2022-10-31T11:20:17;6.07;;;2.10;;
11139;SDS011;5624;49.388;11.350;2022-10-31T11:26:03;7.35;;;2.38;;
11139;SDS011;5624;49.388;11.350;2022-10-31T11:28:31;8.40;;;2.55;;
11139;SDS011;5624;49.388;11.350;2022-10-31T11:31:00;8.00;;;2.33;;
11139;SDS011;5624;49.388;11.350;2022-10-31T11:33:32;7.20;;;2.60;;
11139;SDS011;5624;49.388;11.350;2022-10-31T11:36:28;6.80;;;2.25;;
11139;SDS011;5624;49.388;11.350;2022-10-31T11:38:55;5.38;;;2.45;;
11139;SDS011;5624;49.388;11.350;2022-10-31T11:46:38;7.65;;;2.67;;
11139;SDS011;5624;49.388;11.350;2022-10-31T11:49:04;8.70;;;2.38;;
11139;SDS011;5624;49.388;11.350;2022-10-31T11:51:36;6.25;;;2.00;;
11139;SDS011;5624;49.388;11.350;2022-10-31T11:54:02;5.80;;;2.30;;
11139;SDS011;5624;49.388;11.350;2022-10-31T11:56:39;6.30;;;2.60;;
11139;SDS011;5624;49.388;11.350;2022-10-31T11:59:14;7.55;;;2.90;;
11139;SDS011;5624;49.388;11.350;2022-10-31T12:01:46;7.40;;;2.53;;
11139;SDS011;5624;49.388;11.350;2022-10-31T12:04:13;7.70;;;2.70;;
11139;SDS011;5624;49.388;11.350;2022-10-31T12:06:42;10.52;;;2.35;;
11139;SDS011;5624;49.388;11.350;2022-10-31T12:09:17;5.72;;;2.65;;
11139;SDS011;5624;49.388;11.350;2022-10-31T12:39:02;7.53;;;2.40;;
11139;SDS011;5624;49.388;11.350;2022-10-31T12:58:06;9.85;;;2.72;;
11139;SDS011;5624;49.388;11.350;2022-10-31T13:00:36;4.88;;;1.88;;
11139;SDS011;5624;49.388;11.350;2022-10-31T13:03:21;9.30;;;2.60;;
11139;SDS011;5624;49.388;11.350;2022-10-31T13:05:51;8.90;;;2.70;;
11139;SDS011;5624;49.388;11.350;2022-10-31T13:08:30;10.10;;;3.08;;
11139;SDS011;5624;49.388;11.350;2022-10-31T13:11:40;5.50;;;2.45;;
11139;SDS011;5624;49.388;11.350;2022-10-31T13:14:07;6.97;;;2.78;;
11139;SDS011;5624;49.388;11.350;2022-10-31T13:16:41;7.50;;;2.67;;
11139;SDS011;5624;49.388;11.350;2022-10-31T13:22:16;9.55;;;3.00;;
11139;SDS011;5624;49.388;11.350;2022-10-31T13:27:37;7.03;;;2.97;;
11139;SDS011;5624;49.388;11.350;2022-10-31T13:30:16;7.53;;;2.60;;
11139;SDS011;5624;49.388;11.350;2022-10-31T13:49:00;10.00;;;2.67;;
11139;SDS011;5624;49.388;11.350;2022-10-31T13:51:30;8.57;;;2.40;;
11139;SDS011;5624;49.388;11.350;2022-10-31T13:54:06;9.23;;;2.85;;
11139;SDS011;5624;49.388;11.350;2022-10-31T13:56:48;8.80;;;2.95;;
11139;SDS011;5624;49.388;11.350;2022-10-31T13:59:16;9.32;;;3.25;;
11139;SDS011;5624;49.388;11.350;2022-10-31T14:01:57;6.63;;;3.17;;
11139;SDS011;5624;49.388;11.350;2022-10-31T14:04:48;6.38;;;2.42;;
11139;SDS011;5624;49.388;11.350;2022-10-31T14:07:18;8.93;;;3.15;;
11139;SDS011;5624;49.388;11.350;2022-10-31T14:14:51;5.43;;;2.65;;
11139;SDS011;5624;49.388;11.350;2022-10-31T14:17:22;8.43;;;2.50;;
11139;SDS011;5624;49.388;11.350;2022-10-31T14:22:35;7.10;;;2.22;;
11139;SDS011;5624;49.388;11.350;2022-10-31T14:25:24;8.00;;;2.58;;
11139;SDS011;5624;49.388;11.350;2022-10-31T14:27:50;7.18;;;2.53;;
11139;SDS011;5624;49.388;11.350;2022-10-31T14:30:18;6.43;;;2.50;;
11139;SDS011;5624;49.388;11.350;2022-10-31T14:33:30;4.28;;;2.17;;
11139;SDS011;5624;49.388;11.350;2022-10-31T14:35:54;5.65;;;2.25;;
11139;SDS011;5624;49.388;11.350;2022-10-31T14:47:27;9.50;;;2.33;;
11139;SDS011;5624;49.388;11.350;2022-10-31T14:52:57;6.80;;;2.60;;
11139;SDS011;5624;49.388;11.350;2022-10-31T14:55:29;9.90;;;2.58;;
11139;SDS011;5624;49.388;11.350;2022-10-31T14:58:02;5.90;;;2.95;;
11139;SDS011;5624;49.388;11.350;2022-10-31T15:00:32;10.85;;;3.40;;
11139;SDS011;5624;49.388;11.350;2022-10-31T15:03:07;6.30;;;3.53;;
11139;SDS011;5624;49.388;11.350;2022-10-31T15:05:51;8.00;;;2.78;;
11139;SDS011;5624;49.388;11.350;2022-10-31T15:08:34;9.63;;;2.83;;
11139;SDS011;5624;49.388;11.350;2022-10-31T15:11:11;7.82;;;3.33;;
11139;SDS011;5624;49.388;11.350;2022-10-31T15:13:46;14.85;;;3.22;;
11139;SDS011;5624;49.388;11.350;2022-10-31T15:16:20;9.45;;;3.75;;
11139;SDS011;5624;49.388;11.350;2022-10-31T15:19:02;8.45;;;3.38;;
11139;SDS011;5624;49.388;11.350;2022-10-31T15:21:30;9.80;;;3.72;;
11139;SDS011;5624;49.388;11.350;2022-10-31T15:23:58;8.98;;;4.53;;
11139;SDS011;5624;49.388;11.350;2022-10-31T15:26:32;11.52;;;4.03;;
11139;SDS011;5624;49.388;11.350;2022-10-31T15:29:10;10.35;;;4.13;;
11139;SDS011;5624;49.388;11.350;2022-10-31T15:34:21;13.57;;;4.60;;
11139;SDS011;5624;49.388;11.350;2022-10-31T15:36:51;14.88;;;4.82;;
11139;SDS011;5624;49.388;11.350;2022-10-31T15:39:17;10.05;;;4.20;;
11139;SDS011;5624;49.388;11.350;2022-10-31T15:44:15;11.38;;;3.92;;
11139;SDS011;5624;49.388;11.350;2022-10-31T15:49:26;9.27;;;3.10;;
11139;SDS011;5624;49.388;11.350;2022-10-31T15:51:56;6.57;;;3.05;;
11139;SDS011;5624;49.388;11.350;2022-10-31T15:54:27;7.40;;;3.05;;
11139;SDS011;5624;49.388;11.350;2022-10-31T15:56:53;8.27;;;2.83;;
11139;SDS011;5624;49.388;11.350;2022-10-31T15:59:20;10.32;;;3.25;;
11139;SDS011;5624;49.388;11.350;2022-10-31T16:01:59;8.25;;;3.10;;
11139;SDS011;5624;49.388;11.350;2022-10-31T16:04:26;5.95;;;3.17;;
11139;SDS011;5624;49.388;11.350;2022-10-31T16:09:52;10.23;;;2.80;;
11139;SDS011;5624;49.388;11.350;2022-10-31T16:12:24;8.48;;;3.38;;
11139;SDS011;5624;49.388;11.350;2022-10-31T16:14:54;8.27;;;3.13;;
11139;SDS011;5624;49.388;11.350;2022-10-31T16:17:24;10.18;;;3.58;;
11139;SDS011;5624;49.388;11.350;2022-10-31T16:20:01;6.00;;;3.20;;
11139;SDS011;5624;49.388;11.350;2022-10-31T16:22:30;10.23;;;3.53;;
11139;SDS011;5624;49.388;11.350;2022-10-31T16:25:08;9.27;;;3.58;;
11139;SDS011;5624;49.388;11.350;2022-10-31T16:27:36;8.32;;;3.70;;
11139;SDS011;5624;49.388;11.350;2022-10-31T16:30:25;9.82;;;3.85;;
11139;SDS011;5624;49.388;11.350;2022-10-31T16:32:55;7.78;;;4.40;;
11139;SDS011;5624;49.388;11.350;2022-10-31T16:35:41;8.35;;;4.40;;
11139;SDS011;5624;49.388;11.350;2022-10-31T16:38:07;10.30;;;4.85;;
11139;SDS011;5624;49.388;11.350;2022-10-31T16:40:34;10.55;;;4.63;;
11139;SDS011;5624;49.388;11.350;2022-10-31T16:43:02;13.95;;;4.88;;
11139;SDS011;5624;49.388;11.350;2022-10-31T16:45:29;12.30;;;4.53;;
11139;SDS011;5624;49.388;11.350;2022-10-31T16:48:05;7.72;;;4.22;;
11139;SDS011;5624;49.388;11.350;2022-10-31T16:50:35;9.70;;;5.25;;
11139;SDS011;5624;49.388;11.350;2022-10-31T16:53:02;11.05;;;4.28;;
11139;SDS011;5624;49.388;11.350;2022-10-31T16:55:29;14.32;;;4.72;;
11139;SDS011;5624;49.388;11.350;2022-10-31T16:57:59;10.18;;;4.07;;
11139;SDS011;5624;49.388;11.350;2022-10-31T17:00:26;10.43;;;5.20;;
11139;SDS011;5624;49.388;11.350;2022-10-31T17:02:52;7.65;;;4.15;;
11139;SDS011;5624;49.388;11.350;2022-10-31T17:05:21;9.57;;;4.20;;
11139;SDS011;5624;49.388;11.350;2022-10-31T17:07:53;9.20;;;4.63;;
11139;SDS011;5624;49.388;11.350;2022-10-31T17:10:22;10.82;;;4.68;;
11139;SDS011;5624;49.388;11.350;2022-10-31T17:12:49;11.88;;;4.95;;
11139;SDS011;5624;49.388;11.350;2022-10-31T17:15:16;12.10;;;5.95;;
11139;SDS011;5624;49.388;11.350;2022-10-31T17:17:48;10.63;;;6.63;;
11139;SDS011;5624;49.388;11.350;2022-10-31T17:22:48;10.82;;;7.43;;
11139;SDS011;5624;49.388;11.350;2022-10-31T17:25:14;15.93;;;6.97;;
11139;SDS011;5624;49.388;11.350;2022-10-31T17:27:42;11.80;;;7.18;;
11139;SDS011;5624;49.388;11.350;2022-10-31T17:30:08;15.63;;;7.72;;
11139;SDS011;5624;49.388;11.350;2022-10-31T17:32:37;13.27;;;7.55;;
11139;SDS011;5624;49.388;11.350;2022-10-31T17:35:03;12.60;;;8.05;;
11139;SDS011;5624;49.388;11.350;2022-10-31T17:37:28;19.60;;;8.57;;
11139;SDS011;5624;49.388;11.350;2022-10-31T17:39:54;11.90;;;7.70;;
11139;SDS011;5624;49.388;11.350;2022-10-31T17:42:19;14.98;;;8.57;;
11139;SDS011;5624;49.388;11.350;2022-10-31T17:44:45;18.50;;;9.25;;
11139;SDS011;5624;49.388;11.350;2022-10-31T17:47:11;21.38;;;12.90;;